Preview of NWS' New Version of Forecast
This preview is not operational and should not be used for support decisions.
Latest weather observations around

Boyd Deep Canyon Reserve (UCNRS) (UCDE)

Using International System of Units (Switch to English Units)
Date/ Time (PST) Wind (kph) Vis. (km) Weather Sky Cond. Temp (°C) Rel. Humidity Wind Chill (°C) Heat Index (°C) Pressure Precip. (cm)
Air Dwpt 6 hour Altimeter (hPa) Sea level (hPa) 1 hr 3 hr 6 hr
Max Min
Feb 21 10:00 WSW 13   Clear   11 0     47%     1002.87        
Feb 21 09:50 WSW 15   Clear   10 1     54% 7   1003.18        
Feb 21 09:40 SW 25   Clear   10 0     51%     1003.18        
Feb 21 09:30 SSW 12   Clear   11 0     46%     1002.98        
Feb 21 09:20 SW 17   Clear   11 -1     44%     1003.18        
Feb 21 09:10 NE 9   Clear   10 1     52%     1003.29        
Feb 21 09:00 N 6   Clear   11 1     53%     1003.18        
Notice The following observation data may not be complete
Feb 21 08:40     Clear            %              
Feb 21 08:30 SW 20   Clear   10 -1     47% 7   1002.98        
Feb 21 08:20 W 18   Clear   9 0     53% 6   1002.87        
Feb 21 08:10 WSW 23   Clear   8 0     60% 4   1002.87        
Feb 21 08:00     Clear   8 0     59%     1002.67        
Notice The following observation data may not be complete
Feb 21 07:50     Clear            %              
Notice The following observation data may not be complete
Feb 21 07:40     Clear            %              
Notice The following observation data may not be complete
Feb 21 07:30     Clear            %              
Notice The following observation data may not be complete
Feb 21 07:20     Clear            %              
Notice The following observation data may not be complete
Feb 21 07:10     Clear            %              
Feb 21 07:00 W 10   Clear   7 1     65% 5   1002.87        
Notice The following observation data may not be complete
Feb 21 06:50     Clear            %              
Feb 21 06:40 SW 12   Clear   7 0     64% 4   1002.67        
Feb 21 06:30 SW 18   Clear   7 0     61% 4   1002.77        
Feb 21 06:20 SW 17   Clear   8 -1     54% 5   1002.77        
Feb 21 06:10 SSW 18   Clear   8 -1     54% 5   1002.87        
Feb 21 06:00 SSW 22   Clear   8 -2     50% 5   1002.77        
Notice The following observation data may not be complete
Feb 21 05:50     Clear            %              
Feb 21 05:40 SSW 20   Clear   8 -3     47% 5   1002.77        
Feb 21 05:30 SSW 19   Clear   8 -3     46% 5   1002.67        
Feb 21 05:20 SW 24   Clear   8 -3     44% 5   1002.57        
Feb 21 05:10 SSW 16   Clear   8 -2     48% 5   1002.46        
Feb 21 05:00 SW 16   Clear   8 -3     47% 5   1002.67        
Feb 21 04:50 SW 19   Clear   8 -2     50% 5   1002.67        
Feb 21 04:40 WSW 14   Clear   8 -1     53% 5   1002.57        
Feb 21 04:30 WSW 14   Clear   8 -2     49% 6   1002.67        
Feb 21 04:20 SSW 13   Clear   8 -1     51% 6   1002.67        
Feb 21 04:10 SSW 16   Clear   8 -1     52% 5   1002.46        
Feb 21 04:00 SSW 15   Clear   8 -1     52% 5   1002.46        
Notice The following observation data may not be complete
Feb 21 03:50     Clear            %              
Feb 21 03:40 WSW 16   Clear   9 -2     46% 6   1002.57        
Feb 21 03:30 WSW 16   Clear   8 -2     48% 6   1002.77        
Feb 21 03:20 WSW 13   Clear   8 -2     49% 6   1002.77        
Feb 21 03:10 WSW 17   Clear   9 -2     48% 6   1002.87        
Feb 21 03:00 WSW 17   Clear   9 -1     51% 6   1002.87        
Feb 21 02:50 SW 14   Clear   9 -1     52% 6   1003.08        
Feb 21 02:40 WSW 9   Clear   9 -1     52% 7   1003.29        
Feb 21 02:30 WSW 9   Clear   8 0     54% 7   1003.29        
Feb 21 02:20 W 13   Clear   9 0     54% 6   1003.39        
Feb 21 02:10 WSW 17   Clear   9 0     55% 6   1003.59        
Feb 21 02:00 WSW 13   Clear   8 0     56% 6   1003.49        
Notice The following observation data may not be complete
Feb 21 01:50     Clear            %              
Feb 21 01:40 WSW 8   Clear   8 0     58% 7   1003.7        
Feb 21 01:30 WSW 12   Clear   8 1     60% 6   1004.01        
Feb 21 01:20 WSW 19   Clear   8 1     58% 5   1004.11        
Feb 21 01:10 SW 18   Clear   9 0     56% 6   1003.9        
Feb 21 01:00 W 12   Clear   8 1     62% 6   1004.11        
Feb 21 00:50 WNW 8   Clear   8 3     69% 7   1004.52        
Feb 21 00:40 WSW 10   Clear   8 2     66% 7   1004.73        
Feb 21 00:30 SW 14   Clear   9 2     64% 6   1004.73        
Feb 21 00:20 SW 12   Clear   8 2     64% 6   1004.73        
Feb 21 00:10 NE 4   Clear   8 2     65%     1004.62        
Feb 21 00:00 WNW 6   Clear   9 1     61% 8   1004.73        
Notice The following observation data may not be complete
Feb 20 23:50     Clear            %              
Feb 20 23:40 WSW 8   Clear   8 1     63% 7   1004.93        
Feb 20 23:30 W 5   Clear   8 2     65% 7   1005.14        
Feb 20 23:20 WSW 6   Clear   8 2     64% 7   1005.34        
Feb 20 23:10 W 5   Clear   9 2     61% 8   1005.45        
Feb 20 23:00 WSW 12   Clear   9 2     61% 7   1005.76        
Feb 20 22:50 SSW 9   Clear   9 2     61% 7   1005.76        
Feb 20 22:40 WSW 9   Clear   9 1     59% 8   1005.96        
Feb 20 22:30 WSW 11   Clear   9 1     58% 7   1005.86        
Feb 20 22:20 WSW 11   Clear   9 1     56% 8   1005.86        
Feb 20 22:10 SW 10   Clear   9 1     56% 8   1005.96        
Feb 20 22:00 SSW 9   Clear   9 1     59% 8   1006.17        
Feb 20 21:50 SW 8   Clear   9 2     61% 8   1006.17        
Feb 20 21:40 ESE 3   Clear   9 2     63%     1006.17        
Feb 20 21:30 NW 4   Clear   9 2     61%     1006.27        
Feb 20 21:20 NW 6   Clear   9 1     58% 9   1006.37        
Feb 20 21:10 SSW 9   Clear   9 1     58% 8   1006.37        
Feb 20 21:00 S 10   Clear   9 2     59% 8   1006.48        
Feb 20 14:00 S 17   Clear   11 0     47%     1010.18        
Feb 20 13:50 SSW 10   Clear   11 0     46%     1010.18        
Feb 20 13:40 ENE 14   Clear   12 0     46%     1010.49        
Feb 20 13:30 NE 17   Clear   11 0     44%     1010.59        
Feb 20 13:20 NNE 12   Clear   12 -1     42%     1010.7        
Feb 20 13:10 N 12   Clear   12 -1     41%     1011        
Feb 20 13:00 NNE 10   Clear   11 -1     42%     1011.21        
Feb 20 12:30 ESE 4   Clear   10 -2     42%     1012.55        
Feb 20 12:20 SSE 4   Clear   10 -2     43%     1013.06        
Feb 20 12:10 N 6   Clear   10 -2     44% 9   1013.06        
Feb 20 12:00 NE 6   Clear   10 -2     43% 9   1013.17        
Feb 20 11:50 NNE 6   Clear   10 -2     42% 9   1013.37        
Feb 20 11:40 N 6   Clear   10 -1     44%     1013.47        
Feb 20 11:30 NNE 5   Clear   10 -1     45% 10   1013.58        
Feb 20 11:20 NNE 6   Clear   10 -1     47% 9   1013.58        
Feb 20 11:10 NE 9   Clear   10 -1     47% 9   1013.68        
Feb 20 11:00 NNE 7   Clear   10 -1     49% 9   1013.78        
Notice The following observation data may not be complete
Feb 20 10:50     Clear            %              
Feb 20 10:40 NNE 5   Clear   10 -1     47% 9   1014.5        
Feb 20 10:30 N 6   Clear   9 -1     47% 9   1014.5        
Feb 20 10:20 NE 5   Clear   10 -1     47% 9   1014.4        
Feb 20 10:10 NNE 7   Clear   9 -1     47% 8   1014.5        
Feb 20 10:00 NE 5   Clear   9 -2     47% 8   1014.71        
Notice The following observation data may not be complete
Feb 20 09:50     Clear            %              
Feb 20 09:40 NNE 3   Clear   9 -1     49%     1015.02        
Feb 20 09:30 NE 5   Clear   9 0     54% 8   1015.22        
Feb 20 09:20 NNE 4   Clear   8 0     54%     1015.33        
Feb 20 09:10 N 3   Clear   8 -1     53%     1015.33        
Feb 20 09:00 NNE 5   Clear   8 0     55% 8   1015.43        
Notice The following observation data may not be complete
Feb 20 08:50     Clear            %              
Feb 20 08:40 NNE 9   Clear   8 -1     53% 6   1015.53        
Feb 20 08:30 NNE 3   Clear   10 -2     43%     1015.64        
Feb 20 08:20 SW 4   Clear   9 -2     44%     1015.64        
Feb 20 08:10 SW 2   Clear   9 -2     46%     1015.53        
Feb 20 08:00 SW 5   Clear   8 -2     50% 8   1015.43        
Notice The following observation data may not be complete
Feb 20 07:50 WSW 2   Clear     -1      %     1015.53        
Feb 20 07:40 SSE 3   Clear   7 -1     54%     1015.64        
Feb 20 07:30 SSW 5   Clear   6 -2     56% 6   1015.64        
Feb 20 07:20 SSW 6   Clear   6 -2     56% 5   1015.64        
Feb 20 07:10 WSW 3   Clear   4 -2     66%     1015.53        
Feb 20 07:00 NW 1   Clear   3 -2     68%     1015.53        
Notice The following observation data may not be complete
Feb 20 06:50     Clear            %              
Feb 20 06:40 W 1   Clear   3 -2     68%     1015.64        
Feb 20 06:30 WSW 3   Clear   3 -2     67%     1015.53        
Feb 20 06:20 SSW 4   Clear   3 -3     65%     1015.53        
Feb 20 06:10 SW 4   Clear   3 -3     66%     1015.64        
Feb 20 06:00 WSW 4   Clear   3 -3     67%     1015.53        
Notice The following observation data may not be complete
Feb 20 05:50     Clear            %              
Feb 20 05:40 WSW 2   Clear   4 -3     61%     1015.84        
Feb 20 05:30 N 2   Clear   4 -3     62%     1015.84        
Feb 20 05:20 SW 3   Clear   3 -3     65%     1016.05        
Feb 20 05:10 SSW 2   Clear   3 -3     64%     1015.94        
Feb 20 05:00 SW 4   Clear   4 -3     60%     1015.84        
Feb 20 04:50 SW 5   Clear   5 -3     57% 4   1015.94        
Feb 20 04:40 SSW 4   Clear   4 -3     60%     1016.05        
Feb 20 04:30 SSW 3   Clear   4 -3     62%     1016.05        
Feb 20 04:20 WSW 3   Clear   3 -3     65%     1016.05        
Feb 20 04:10 SW 1   Clear   4 -3     63%     1016.15        
Feb 20 04:00 ESE 2   Clear   4 -3     59%     1016.15        
Feb 20 03:50 NNW 1   Clear   3 -2     66%     1016.05        
Feb 20 03:40 SW 2   Clear   4 -3     63%     1016.05        
Feb 20 03:30 SW 3   Clear   4 -2     65%     1016.15        
Feb 20 03:20 SW 4   Clear   4 -2     66%     1016.25        
Feb 20 03:10 WSW 3   Clear   4 -2     65%     1016.46        
Feb 20 03:00 E 1   Clear   4 -3     64%     1016.77        
Feb 20 02:50 ESE 4   Clear   4 -2     65%     1016.97        
Feb 20 02:40 SW 4   Clear   4 -2     64%     1016.97        
Feb 20 02:30 SSE 3   Clear   4 -3     60%     1017.18        
Feb 20 02:20 SW 4   Clear   5 -2     61%     1017.28        
Feb 20 02:10 SW 2   Clear   4 -3     61%     1017.39        
Feb 20 02:00 NE 1   Clear   4 -2     61%     1017.39        
Notice The following observation data may not be complete
Feb 20 01:50     Clear            %              
Feb 20 01:40 W 2   Clear   5 -3     57%     1017.69        
Feb 20 01:30 W 2   Clear   5 -3     58%     1017.9        
Feb 20 01:20 WNW 2   Clear   5 -3     59%     1018        
Feb 20 01:10 SE 3   Clear   5 -3     54%     1018.21        
Feb 20 01:00 ESE 3   Clear   6 -3     52%     1018.21        
Feb 20 00:50 E 3   Clear   6 -3     50%     1018.21        
Feb 20 00:40 W 4   Clear   8 -4     43%     1018.31        
Feb 20 00:30 SW 8   Clear   8 -4     42% 6   1018.41        
Feb 20 00:20 SSW 12   Clear   8 -5     40% 6   1018.52        
Feb 20 00:10 SSW 9   Clear   8 -5     38% 6   1018.62        
Feb 20 00:00 SSW 13   Clear   8 -6     36% 6   1018.62        
Feb 19 23:30 SSW 12   Clear   8 -7     35% 6   1018.93        
Feb 19 23:20 SSW 12   Clear   8 -6     36% 6   1019.03        
Feb 19 23:10 SSW 7   Clear   8 -6     37% 7   1019.14        
Feb 19 23:00 S 6   Clear   9 -5     37% 8   1019.14        
Feb 19 22:40 SSW 10   Clear   9 -7     32% 7   1019.14        
Feb 19 22:30 S 16   Clear   9 -7     32% 7   1019.14        
Feb 19 22:20 SSW 15   Clear   9 -5     36% 7   1019.14        
Feb 19 22:10 SSW 16   Clear   9 -5     36% 7   1019.14        
Feb 19 22:00 SSW 18   Clear   9 -5     35% 7   1019.24        
Feb 19 21:50 SSW 18   Clear   9 -6     33% 7   1019.24        
Feb 19 21:40 SSW 18   Clear   9 -6     33% 7   1019.24        
Feb 19 21:30 SSW 21   Clear   9 -7     31% 7   1019.24        
Feb 19 21:20 SSW 18   Clear   9 -7     30% 7   1019.24        
Feb 19 21:10 SSW 18   Clear   9 -8     29% 7   1019.24        
Feb 19 21:00 SSW 15   Clear   9 -8     29% 7   1019.14        
Feb 19 20:20 SSW 19   Clear   10 -8     28% 7   1019.14        
Feb 19 20:10 SSW 17   Clear   10 -8     28% 7   1019.03        
Feb 19 20:00 SSW 17   Clear   10 -8     28% 7   1019.03        
Feb 19 19:50 SSW 16   Clear   10 -8     28% 7   1018.93        
Feb 19 19:40 SSW 12   Clear   10 -8     29% 8   1018.83        
Feb 19 19:30 SSW 16   Clear   10 -9     26% 8   1018.62        
Feb 19 19:20 SSW 17   Clear   10 -8     27% 8   1018.62        
Feb 19 19:10 SSW 16   Clear   10 -8     27%     1018.62        
Feb 19 19:00 SSW 18   Clear   10 -8     27%     1018.52        
Feb 19 18:20 SSW 10   Clear   10 -6     34% 8   1018.31        
Feb 19 18:10 SSW 9   Clear   9 -5     35% 8   1018.21        
Feb 19 18:00 SSW 6   Clear   9 -5     36% 9   1018.21        
Feb 19 17:20 SSW 6   Clear   10 -4     36% 9   1018        
Feb 19 17:10 SSW 5   Clear   10 -4     38%     1018.11        
Feb 19 17:00 SSW 5   Clear   10 -4     37%     1018.21        
Notice The following observation data may not be complete
Feb 19 16:50     Clear            %              
Feb 19 16:40 SW 6   Clear   11 -5     33%     1018.31        
Feb 19 16:30 SW 6   Clear   12 -7     26%     1018.31        
Feb 19 16:20 SSW 5   Clear   14 -9     20%     1018.31        
Feb 19 16:10 SSW 5   Clear   15 -9     19%     1018.41        
Feb 19 16:00 N 2   Clear   15 -9     19%     1018.52        
Notice The following observation data may not be complete
Feb 19 15:50     Clear            %              
Feb 19 15:40 S 4   Clear   14 -9     19%     1018.52        
Feb 19 15:30 SSW 4   Clear   14 -9     20%     1018.62        
Feb 19 15:20 SE 4   Clear   13 -9     20%     1018.72        
Feb 19 15:10 SE 4   Clear   13 -10     19%     1018.72        
Feb 19 15:00 NNE 4   Clear   13 -9     20%     1018.83        
Notice The following observation data may not be complete
Feb 19 14:40     Clear            %              
Notice The following observation data may not be complete
Feb 19 14:30     Clear            %              
Feb 19 14:20 NE 7   Clear   13 -10     20%     1019.34        
Feb 19 14:10 NNE 6   Clear   13 -10     20%     1019.34        
Feb 19 14:00 NNE 5   Clear   13 -10     20%     1019.34        
Notice The following observation data may not be complete
Feb 19 13:50     Clear            %              
Feb 19 13:40 NE 5   Clear   13 -10     19%     1019.55        
Feb 19 13:30 NE 4   Clear   12 -10     20%     1019.65        
Feb 19 13:20 NE 4   Clear   13 -10     20%     1019.75        
Feb 19 13:10 NE 9   Clear   12 -10     21%     1019.86        
Feb 19 13:00 NE 12   Clear   12 -9     22%     1019.86        
Feb 19 12:50 ENE 12   Clear   12 -9     22%     1019.96        
Feb 19 12:40 NNE 10   Clear   12 -10     21%     1020.16        
Feb 19 12:30 N 9   Clear   12 -10     20%     1020.27        
Feb 19 12:20 ENE 5   Clear   12 -10     20%     1020.47        
Feb 19 12:10 NNE 5   Clear   12 -10     21%     1020.68        
Feb 19 12:00 NNE 9   Clear   12 -9     22%     1020.78        
Notice The following observation data may not be complete
Feb 19 11:50     Clear            %              
Feb 19 11:40 NNE 8   Clear   12 -9     22%     1021.09        
Feb 19 11:30 NE 7   Clear   12 -9     22%     1021.19        
Feb 19 11:20 NE 9   Clear   11 -10     22%     1021.3        
Feb 19 11:10 NNE 7   Clear   12 -10     21%     1021.4        
Feb 19 11:00 SW 7   Clear   12 -10     21%     1021.5        
Notice The following observation data may not be complete
Feb 19 10:50     Clear            %              
Feb 19 10:40 NNW 3   Clear   11 -10     21%     1021.71        
Feb 19 10:30 NW 6   Clear   11 -11     21%     1021.81        
Feb 19 10:20 SSW 3   Clear   12 -9     22%     1021.81        
Feb 19 10:10 NE 4   Clear   11 -10     21%     1021.71        
Feb 19 10:00 ENE 4   Clear   11 -11     21%     1021.71        
Feb 19 09:50 S 4   Clear   11 -10     22%     1021.71        
Feb 19 09:40 WNW 7   Clear   11 -10     23%     1021.81        
Feb 19 09:30 W 4   Clear   11 -11     20%     1021.71        
Feb 19 09:20 WSW 7   Clear   10 -11     21%     1021.5        
Feb 19 09:10 S 8   Clear   11 -11     21%     1021.5        
Feb 19 09:00 SW 7   Clear   11        %     1021.4        
Feb 19 08:50 SSW 9   Clear   11 -10     22%     1021.4        
Feb 19 08:40 SW 6   Clear   11 -10     23%     1021.5        
Feb 19 08:30 SW 5   Clear   11 -10     23%     1021.4        
Feb 19 08:20 SSW 9   Clear   10 -9     25% 8   1021.19        
Feb 19 08:10 SSW 11   Clear   9 -9     28% 7   1021.19        
Feb 19 08:00 SSW 12   Clear   9 -8     30% 7   1020.99        
Feb 19 07:50 SSW 11   Clear   8 -8     31% 6   1020.88        
Feb 19 07:40 SW 12   Clear   8 -8     32% 5   1020.68        
Feb 19 07:30 SSW 12   Clear   8 -8     31% 6   1020.58        
Notice The following observation data may not be complete
Feb 19 07:20     Clear            %              
Notice The following observation data may not be complete
Feb 19 07:10     Clear            %              
Feb 19 07:00 SW 12   Clear   6 -9     33% 4   1020.27        
Feb 19 06:40 SW 14   Clear   6 -9     32% 3   1019.96        
Feb 19 06:30 SW 15   Clear   7 -10     30% 4   1019.86        
Feb 19 06:20 SW 13   Clear   7 -10     29% 4   1019.65        
Feb 19 06:10 WSW 12   Clear   7 -10     30% 4   1019.55        
Feb 19 06:00 SW 12   Clear   6 -9     32% 4   1019.34        
Notice The following observation data may not be complete
Feb 19 05:50     Clear            %              
Feb 19 05:40 SW 12   Clear   6 -9     34% 4   1019.14        
Feb 19 05:30 SW 11   Clear   6 -9     33% 4   1019.03        
Feb 19 05:20 SW 12   Clear   6 -8     35% 3   1018.93        
Feb 19 05:10 SSW 11   Clear   6 -8     37% 3   1019.03        
Feb 19 05:00 SW 10   Clear   6 -8     36% 4   1018.93        
Feb 19 04:50 SW 15   Clear   7 -9     32% 4   1018.83        
Feb 19 04:40 SW 15   Clear   6 -8     35% 3   1018.83        
Feb 19 04:30 SW 13   Clear   6 -8     36% 3   1018.72        
Feb 19 04:20 SSW 10   Clear   6 -7     38% 4   1018.83        
Feb 19 04:10 SSW 12   Clear   6 -8     37% 4   1018.72        
Feb 19 04:00 SSW 11   Clear   5 -6     42% 3   1018.83        
Feb 19 03:50 SSW 10   Clear   6 -7     41% 3   1018.72        
Feb 19 03:40 SSW 10   Clear   6 -7     40% 4   1018.72        
Feb 19 03:30 SW 11   Clear   6 -7     39% 4   1018.72        
Feb 19 03:20 SW 8   Clear   5 -6     43% 4   1018.72        
Feb 19 03:10 SW 1   Clear   5 -6     46%     1018.72        
Feb 19 03:00 S 4   Clear   6 -6     41%     1018.72        
Notice The following observation data may not be complete
Feb 19 02:50     Clear            %              
Feb 19 02:40 SW 10   Clear   6 -7     38% 4   1018.83        
Feb 19 02:30 SW 7   Clear   7 -8     34% 6   1018.93        
Feb 19 02:20 SW 10   Clear   7 -7     36% 5   1019.03        
Feb 19 02:10 SW 10   Clear   7 -7     36% 5   1019.03        
Feb 19 02:00 WSW 7   Clear   7 -8     33% 6   1019.03        
Feb 19 01:50 W 5   Clear   8 -9     31% 7   1018.93        
Feb 19 01:40 W 8   Clear   8 -9     29% 7   1018.83        
Feb 19 01:30 WSW 6   Clear   8 -9     29% 7   1018.83        
Feb 19 01:20 WSW 5   Clear   8 -9     29% 7   1018.83        
Feb 19 01:10 SW 6   Clear   8 -9     30% 7   1018.83        
Feb 19 01:00 SW 8   Clear   8 -9     30% 7   1018.83        
Feb 19 00:50 SW 10   Clear   7 -7     38% 5   1018.83        
Feb 19 00:40 SW 6   Clear   8 -8     33% 7   1018.72        
Feb 19 00:30 W 6   Clear   8 -8     32% 7   1018.72        
Feb 19 00:20 SW 9   Clear   7 -7     38% 5   1018.72        
Feb 19 00:10 SW 8   Clear   6 -6     42% 5   1018.62        
Feb 19 00:00 SW 8   Clear   7 -6     38% 5   1018.52        
Feb 18 23:50 SW 7   Clear   7 -6     38% 6   1018.52        
Feb 18 23:40 SW 8   Clear   7 -7     36% 6   1018.52        
Feb 18 23:30 SW 10   Clear   8 -8     32% 6   1018.41        
Feb 18 23:20 SW 11   Clear   8 -7     33% 6   1018.21        
Feb 18 23:10 SW 9   Clear   8 -8     32% 7   1018.21        
Feb 18 23:00 SW 13   Clear   8 -8     32% 6   1018.21        
Feb 18 22:50 SSW 11   Clear   8 -7     33% 6   1018.21        
Feb 18 22:40 SW 13   Clear   8 -8     31% 6   1018.21        
Feb 18 22:30 SW 13   Clear   8 -8     31% 6   1018.21        
Feb 18 22:20 SW 16   Clear   8 -8     30% 6   1018.21        
Feb 18 22:10 SW 16   Clear   9 -8     29% 6   1018.21        
Feb 18 22:00 SW 16   Clear   8 -8     31% 6   1018.21        
Notice The following observation data may not be complete
Feb 18 21:50     Clear            %              
Feb 18 21:40 SSW 11   Clear   8 -7     33% 6   1018.21        
Feb 18 21:30 SW 11   Clear   8 -7     33% 6   1018.21        
Feb 18 21:20 SW 9   Clear   8 -7     34% 6   1018.11        
Feb 18 21:10 SSW 9   Clear   8 -7     32% 7   1018        
Feb 18 21:00 SW 10   Clear   8 -7     34% 7   1017.9        
Feb 18 20:50 SW 12   Clear   8 -7     33% 6   1017.8        
Feb 18 20:40 WSW 9   Clear   9 -8     30% 8   1017.59        
Feb 18 20:30 SW 12   Clear   8 -7     34% 6   1017.49        
Feb 18 20:20 SW 10   Clear   9 -6     34% 7   1017.39        
Feb 18 20:10 SW 8   Clear   9 -6     34% 7   1017.28        
Feb 18 20:00 SW 9   Clear   9 -7     32% 8   1017.28        
Feb 18 19:30 WSW 6   Clear   9 -6     33% 8   1017.18        
Feb 18 19:20 SW 6   Clear   9 -6     33% 9   1017.08        
Feb 18 19:10 SW 9   Clear   9 -7     32% 8   1016.97        
Feb 18 19:00 SW 11   Clear   9 -6     32% 8   1016.87        
Feb 18 18:50 SW 11   Clear   9 -5     35% 8   1016.77        
Feb 18 18:40 SW 8   Clear   9 -4     38% 8   1016.67        
Feb 18 18:30 WSW 3   Clear   10 -5     36%     1016.56        
Feb 18 18:20 WNW 5   Clear   10 -7     30%     1016.46        
Feb 18 18:10 W 5   Clear   10 -6     32%     1016.36        
Feb 18 18:00 W 6   Clear   10 -4     39% 9   1016.15        
Feb 18 17:50 SW 6   Clear   10 -1     47% 9   1015.94        
Feb 18 17:40 SSW 4   Clear   10 -3     40%     1015.84        
Feb 18 17:30 NE 4   Clear   10 -1     46%     1015.84        
Notice The following observation data may not be complete
Feb 18 17:20     Clear            %              
Feb 18 17:10 NE 2   Clear   11 -2     41%     1015.64        
Feb 18 17:00 ENE 3   Clear   11 -2     41%     1015.64        
Feb 18 16:50 NE 4   Clear   11 -2     40%     1015.53        
Feb 18 16:40 NE 8   Clear   11 -1     42%     1015.53        
Feb 18 16:30 NNE 9   Clear   11 -3     36%     1015.53        
Feb 18 16:20 NNE 8   Clear   12 -5     30%     1015.43        
Feb 18 16:10 N 3   Clear   12 -6     29%     1015.33        
Feb 18 16:00 SW 4   Clear   12 -7     26%     1015.22        
Notice The following observation data may not be complete
Feb 18 15:50     Clear            %              
Feb 18 15:40 SW 4   Clear   12 -6     28%     1015.33        
Feb 18 15:30 S 4   Clear   12 -6     28%     1015.33        
Feb 18 15:20 SW 5   Clear   12 -6     28%     1015.53        
Feb 18 15:10 WSW 7   Clear   12 -6     29%     1015.53        
Feb 18 15:00 WNW 5   Clear   12 -5     29%     1015.64        
Feb 18 14:50 NW 3   Clear   13 -5     28%     1015.64        
Feb 18 14:40 SSW 7   Clear   13 -5     29%     1015.53        
Feb 18 14:30 SW 7   Clear   13 -5     29%     1015.53        
Feb 18 14:20 SSW 8   Clear   13 -5     30%     1015.64        
Feb 18 14:10 WSW 10   Clear   12 -5     29%     1015.74        
Feb 18 14:00 W 5   Clear   13 -5     27%     1015.84        
Feb 18 13:50 NE 8   Clear   13 -4     30%     1015.84        
Feb 18 13:40 NNE 6   Clear   13 -5     27%     1015.84        
Feb 18 13:30 NNE 9   Clear   13 -5     29%     1015.94        
Feb 18 13:20 NNE 10   Clear   13 -5     29%     1016.05        
Feb 18 13:10 NNE 9   Clear   13 -5     28%     1016.25        
Feb 18 13:00 NE 10   Clear   13 -4     30%     1016.46        
Feb 18 12:50 NW 6   Clear   12 -6     28%     1016.56        
Feb 18 12:40 NNE 6   Clear   12 -6     28%     1016.67        
Feb 18 12:30 ENE 5   Clear   12 -6     28%     1016.87        
Feb 18 12:20 ENE 8   Clear   12 -5     30%     1017.08        
Feb 18 12:10 E 5   Clear   13 -5     28%     1017.18        
Feb 18 12:00 NNE 4   Clear   13 -5     29%     1017.28        
Feb 18 11:50 NE 5   Clear   12 -5     29%     1017.39        
Feb 18 11:40 ENE 5   Clear   12 -5     30%     1017.49        
Feb 18 11:30 NE 6   Clear   12 -5     29%     1017.59        
Feb 18 11:20 WNW 3   Clear   13 -5     28%     1017.59        
Feb 18 11:10 NE 5   Clear   12 -6     29%     1017.8        
Feb 18 11:00 ENE 5   Clear   12 -6     29%     1017.9        
Notice The following observation data may not be complete
Feb 18 10:50     Clear            %              
Feb 18 10:40 E 4   Clear   12 -2     37%     1017.8        
Feb 18 10:30 NE 3   Clear   12 0     44%     1017.8        
Feb 18 10:20 WSW 1   Clear   12 -1     41%     1017.8        
Feb 18 10:10 S 3   Clear   12 0     45%     1017.69        
Feb 18 10:00 S 3   Clear   11 0     46%     1017.69        
Feb 18 09:50 SSE 3   Clear   11 1     50%     1017.69        
May 15 09:50 N 8   Clear   25 6     31%   24 1012.55        
May 15 09:20 N 5   Clear   24 6     32%   23 1012.45        
May 15 05:00 Calm   Clear   17 8     55%     1009.67        
May 14 23:50 NE 5   Clear   21 7     40%     1009.77        
May 14 18:50 N 7   Clear   27 6     25%   26 1008.23        
May 14 18:00 NNW 12   Clear   29 3     19%   28 1008.02        
May 14 16:20 N 7   Clear   30        %     1008.64        
May 14 15:50 NNW 9   Clear   30 -3     12%   28 1008.84        
May 14 14:30 NE 8   Clear   29 -2     13%   27 1009.98        
May 14 10:40 N 10   Clear   25 5     27%   24 1011.42        
May 14 09:30 N 6   Clear   24 4     27%   23 1011.21        
May 14 09:10 N 6   Clear   23 4     30%   22 1011.21        
May 14 09:00 N 6   Clear   22 5     33%   21 1011.21        
May 14 06:30 NE 4   Clear   15 6     56%     1009.98        
May 14 03:30 NNE 4   Clear   16 8     56%     1009.46        
May 14 00:40 Calm   Clear   18 7     47%     1009.77        
May 13 18:30 NNW 12   Clear   26 5     26%   25 1009.26        
May 13 16:50 NNW 9   Clear   27 4     23%   26 1009.56        
May 13 16:00 NNW 9   Clear   26 4     25%   25 1009.77        
May 13 12:40 NE 11   Clear   25 5     27%   24          
May 13 07:40 NNW 4   Clear   18 6     44%     1011.21        
Notice The following observation data may not be complete
May 13 07:20     Clear            %              
May 13 07:10 NNE 5   Clear   19 6     43%     1010.7        
May 13 03:00 Calm   Clear   16 6     50%     1009.26        
May 13 02:10 NNE 5   Clear   17 5     44%     1008.64        
May 12 16:00 NNW 12   Clear   26 4     25%   25 1007.92        
May 12 12:10 NNW 11   Clear   24 5     29%   23 1009.56        
May 12 11:40 N 9   Clear   23 5     31%   23 1009.67        
May 12 00:40     Clear   19 1     31%     1004.01        
May 11 23:10 W 11   Clear   19 5     40%     1004.21        
May 11 22:30 WSW 20   Clear   19 2     32%     1004.31        
May 11 22:00     Clear   19 3     36%              
May 11 18:00     Clear   27 3     21%   26 1002.05        
Notice The following observation data may not be complete
May 11 11:20     Clear            %